Time;durP1;ratioP1;P1;durP2;ratioP2;P2;SDS_P1;SDS_P2;PMS_P1;PMS_P2;Temp;Humidity;BMP_temperature;BMP_pressure;BME280_temperature;BME280_humidity;BME280_pressure;Samples;Min_cycle;Max_cycle;Signal;HPM_P1;HPM_P2
2023/10/30 00:00:50;;;;;;;;;0.00;0.00;;;;;12.92;75.33;98304.13;5077904;28;8852;-57
2023/10/30 00:03:17;;;;;;;;;0.00;0.00;;;;;12.94;75.43;98306.63;5078336;28;8816;-59
2023/10/30 00:05:45;;;;;;;;;0.00;0.00;;;;;12.95;75.36;98308.31;5078670;28;8820;-58
2023/10/30 00:08:13;;;;;;;;;0.50;0.25;;;;;12.97;75.42;98312.50;5077955;28;8835;-58
2023/10/30 00:10:41;;;;;;;;;0.25;0.25;;;;;12.99;75.26;98315.81;5078037;28;8828;-59
2023/10/30 00:13:08;;;;;;;;;0.00;0.00;;;;;13.01;74.95;98319.16;5077861;28;8903;-57
2023/10/30 00:15:36;;;;;;;;;0.00;0.00;;;;;13.02;75.14;98322.66;5078503;28;8831;-57
2023/10/30 00:18:04;;;;;;;;;0.00;0.00;;;;;13.02;75.06;98330.66;5077427;28;8962;-59
2023/10/30 00:20:31;;;;;;;;;0.00;0.00;;;;;13.00;75.51;98320.13;5078070;28;9535;-57
2023/10/30 00:22:59;;;;;;;;;0.00;0.00;;;;;13.01;75.05;98326.34;5078316;28;8835;-57
2023/10/30 00:25:27;;;;;;;;;0.75;0.75;;;;;12.99;74.85;98323.81;5077704;28;8816;-57
2023/10/30 00:27:59;;;;;;;;;0.00;0.00;;;;;12.99;75.15;98337.19;5078278;28;8939;-59
2023/10/30 00:30:27;;;;;;;;;0.00;0.00;;;;;13.01;75.17;98327.19;5078115;28;8848;-59
2023/10/30 00:32:55;;;;;;;;;0.00;0.00;;;;;13.02;75.17;98323.50;5077741;28;8846;-59
2023/10/30 00:35:22;;;;;;;;;0.00;0.00;;;;;13.04;74.96;98333.97;5077717;28;8824;-57
2023/10/30 00:37:50;;;;;;;;;0.00;0.00;;;;;13.06;75.04;98315.94;5077007;28;9514;-57
2023/10/30 00:40:19;;;;;;;;;0.00;0.00;;;;;13.07;74.57;98331.78;5077553;28;8821;-58
2023/10/30 00:42:47;;;;;;;;;0.00;0.00;;;;;13.07;75.16;98334.47;5077374;28;8879;-58
2023/10/30 00:45:14;;;;;;;;;0.00;0.00;;;;;13.06;75.16;98337.34;5077352;28;8859;-58
2023/10/30 00:47:42;;;;;;;;;0.00;0.00;;;;;13.04;74.78;98336.66;5077195;28;8912;-57
2023/10/30 00:50:09;;;;;;;;;0.00;0.00;;;;;13.01;75.10;98345.03;5077284;28;8824;-59
2023/10/30 00:52:37;;;;;;;;;0.00;0.00;;;;;12.98;75.34;98362.25;5078063;28;9557;-57
2023/10/30 00:55:05;;;;;;;;;0.50;0.50;;;;;12.95;75.25;98357.28;5077388;28;8836;-56
2023/10/30 00:57:32;;;;;;;;;1.50;0.50;;;;;12.93;75.31;98353.88;5076692;28;8835;-57
2023/10/30 01:00:00;;;;;;;;;0.25;0.25;;;;;12.94;75.22;98352.94;5076728;28;8836;-58
2023/10/30 01:02:28;;;;;;;;;0.00;0.00;;;;;12.92;75.27;98356.75;5076883;28;8825;-59
2023/10/30 01:04:55;;;;;;;;;0.00;0.00;;;;;12.92;75.45;98362.09;5076984;28;8816;-57
2023/10/30 01:07:24;;;;;;;;;0.00;0.00;;;;;12.90;75.04;98370.28;5077273;28;9533;-58
2023/10/30 01:09:52;;;;;;;;;0.00;0.00;;;;;12.89;75.15;98367.78;5076805;28;8839;-57
2023/10/30 01:12:19;;;;;;;;;0.00;0.00;;;;;12.91;74.95;98381.81;5076496;28;8851;-57
2023/10/30 01:14:47;;;;;;;;;0.00;0.00;;;;;12.90;75.89;98372.13;5077065;28;8925;-59
2023/10/30 01:17:14;;;;;;;;;0.00;0.00;;;;;12.88;75.60;98368.78;5076943;28;8820;-57
2023/10/30 01:19:43;;;;;;;;;0.00;0.00;;;;;12.85;75.66;98350.44;5076569;28;8820;-58
2023/10/30 01:22:11;;;;;;;;;0.25;0.25;;;;;12.86;75.35;98362.78;5076589;28;8851;-57
2023/10/30 01:24:38;;;;;;;;;0.25;0.25;;;;;12.85;75.44;98375.31;5076483;28;8820;-59
2023/10/30 01:27:06;;;;;;;;;0.00;0.00;;;;;12.86;75.53;98368.97;5077036;28;8824;-57
2023/10/30 01:29:34;;;;;;;;;0.00;0.00;;;;;12.87;75.20;98369.78;5076408;28;8871;-59
2023/10/30 01:32:01;;;;;;;;;0.00;0.00;;;;;12.88;75.39;98366.09;5076364;28;8820;-57
2023/10/30 01:34:29;;;;;;;;;0.50;0.50;;;;;12.88;75.16;98366.97;5076245;28;8862;-59
2023/10/30 01:36:57;;;;;;;;;0.00;0.00;;;;;12.89;75.14;98357.94;5075707;28;8921;-58
2023/10/30 01:39:24;;;;;;;;;0.00;0.00;;;;;12.89;75.67;98365.09;5076784;28;8816;-58
2023/10/30 01:41:53;;;;;;;;;0.00;0.00;;;;;12.88;75.49;98360.75;5076496;28;8820;-57
2023/10/30 01:44:20;;;;;;;;;0.00;0.00;;;;;12.87;75.53;98359.09;5076481;28;8893;-58
2023/10/30 01:46:48;;;;;;;;;0.00;0.00;;;;;12.85;75.69;98355.78;5076510;28;8804;-57
2023/10/30 01:49:16;;;;;;;;;0.00;0.00;;;;;12.85;75.79;98356.59;5076423;28;8816;-60
2023/10/30 01:51:44;;;;;;;;;0.50;0.00;;;;;12.86;75.63;98358.28;5076330;28;8828;-57
2023/10/30 01:54:11;;;;;;;;;0.00;0.00;;;;;12.87;75.63;98369.78;5076306;28;8847;-57
2023/10/30 01:56:39;;;;;;;;;0.00;0.00;;;;;12.87;75.74;98359.94;5076520;28;8847;-58
2023/10/30 01:59:07;;;;;;;;;0.00;0.00;;;;;12.87;75.58;98375.13;5076426;28;8883;-58
2023/10/30 02:01:34;;;;;;;;;0.50;0.00;;;;;12.86;75.77;98365.47;5076368;28;8847;-58
2023/10/30 02:04:02;;;;;;;;;0.00;0.00;;;;;12.85;75.83;98371.81;5075956;28;8832;-58
2023/10/30 02:06:30;;;;;;;;;0.00;0.00;;;;;12.84;75.62;98373.63;5076276;28;8820;-57
2023/10/30 02:08:58;;;;;;;;;1.00;0.25;;;;;12.84;75.82;98380.84;5075843;28;8817;-59
2023/10/30 02:11:25;;;;;;;;;0.50;0.50;;;;;12.84;76.28;98380.84;5076092;28;8831;-57
2023/10/30 02:13:53;;;;;;;;;0.00;0.00;;;;;12.84;75.58;98378.16;5075867;28;8829;-60
2023/10/30 02:16:20;;;;;;;;;0.75;0.75;;;;;12.82;76.11;98373.00;5075792;28;8850;-57
2023/10/30 02:18:48;;;;;;;;;1.00;0.00;;;;;12.82;75.95;98372.16;5075525;28;8894;-57
2023/10/30 02:21:17;;;;;;;;;0.00;0.00;;;;;12.82;76.00;98366.81;5075990;28;8821;-57
2023/10/30 02:23:45;;;;;;;;;0.00;0.00;;;;;12.83;75.63;98377.31;5075539;28;8835;-57
2023/10/30 02:26:12;;;;;;;;;0.00;0.00;;;;;12.84;76.42;98370.16;5076233;28;8839;-59
2023/10/30 02:28:40;;;;;;;;;1.00;0.00;;;;;12.83;76.26;98376.50;5075991;28;8827;-57
2023/10/30 02:31:07;;;;;;;;;0.00;0.00;;;;;12.82;75.78;98385.50;5075800;28;8812;-57
2023/10/30 02:33:35;;;;;;;;;0.25;0.00;;;;;12.82;75.63;98377.50;5075007;28;8819;-58
2023/10/30 02:36:02;;;;;;;;;0.50;0.50;;;;;12.81;76.38;98370.47;5074992;28;8821;-59
2023/10/30 02:38:30;;;;;;;;;0.00;0.00;;;;;12.80;76.45;98380.34;5075883;28;8844;-58
2023/10/30 02:40:58;;;;;;;;;0.25;0.25;;;;;12.80;76.45;98384.84;5075853;28;8824;-57
2023/10/30 02:43:26;;;;;;;;;0.00;0.00;;;;;12.80;76.41;98384.84;5075730;28;8933;-57
2023/10/30 02:45:53;;;;;;;;;2.00;0.75;;;;;12.80;76.38;98384.84;5076118;28;8821;-57
2023/10/30 02:48:21;;;;;;;;;0.00;0.00;;;;;12.79;76.34;98381.38;5075918;28;8820;-57
2023/10/30 02:50:49;;;;;;;;;0.00;0.00;;;;;12.79;76.16;98400.06;5076274;28;8833;-57
2023/10/30 02:53:16;;;;;;;;;0.00;0.00;;;;;12.79;76.74;98378.69;5075801;28;8820;-57
2023/10/30 02:55:44;;;;;;;;;1.00;1.00;;;;;12.80;76.25;98391.03;5075161;28;8863;-58
2023/10/30 02:58:11;;;;;;;;;0.00;0.00;;;;;12.80;76.47;98387.53;5075629;28;8809;-59
2023/10/30 03:00:39;;;;;;;;;0.00;0.00;;;;;12.80;76.36;98385.69;5075586;28;8860;-57
2023/10/30 03:03:07;;;;;;;;;0.00;0.00;;;;;12.84;76.79;98395.00;5075542;28;8843;-59
2023/10/30 03:05:35;;;;;;;;;0.00;0.00;;;;;12.85;76.03;98387.84;5075293;28;8832;-57
2023/10/30 03:08:02;;;;;;;;;0.50;0.50;;;;;12.86;76.43;98395.69;5075636;28;8909;-59
2023/10/30 03:10:30;;;;;;;;;0.00;0.00;;;;;12.88;76.15;98390.16;5075332;28;8839;-59
2023/10/30 03:12:58;;;;;;;;;0.00;0.00;;;;;12.89;76.26;98383.81;5075323;28;8816;-57
2023/10/30 03:15:25;;;;;;;;;0.00;0.00;;;;;12.89;76.29;98394.50;5075509;28;8844;-60
2023/10/30 03:17:53;;;;;;;;;0.00;0.00;;;;;12.88;76.08;98387.47;5075681;28;8851;-57
2023/10/30 03:20:21;;;;;;;;;0.50;0.00;;;;;12.88;76.50;98384.81;5075222;28;8836;-57
2023/10/30 03:22:48;;;;;;;;;0.50;0.50;;;;;12.88;76.43;98384.81;5075579;28;8836;-57
2023/10/30 03:25:17;;;;;;;;;0.00;0.00;;;;;12.86;76.46;98385.00;5075350;28;8840;-59
2023/10/30 03:27:44;;;;;;;;;1.00;1.00;;;;;12.85;76.48;98382.50;5075644;28;8816;-59
2023/10/30 03:30:12;;;;;;;;;0.00;0.00;;;;;12.83;76.37;98380.00;5075278;28;8854;-59
2023/10/30 03:32:40;;;;;;;;;0.00;0.00;;;;;12.82;76.93;98374.81;5075296;28;8812;-59
2023/10/30 03:35:07;;;;;;;;;1.00;0.00;;;;;12.81;77.00;98376.69;5077867;28;8849;-58
2023/10/30 03:37:35;;;;;;;;;0.00;0.00;;;;;12.81;76.46;98381.16;5079054;28;8844;-57
2023/10/30 03:40:03;;;;;;;;;0.50;0.00;;;;;12.80;76.70;98374.16;5079100;28;8824;-58
2023/10/30 03:42:30;;;;;;;;;0.00;0.00;;;;;12.80;76.73;98371.50;5078825;28;8827;-57
2023/10/30 03:44:58;;;;;;;;;0.50;0.50;;;;;12.79;76.26;98368.00;5079105;28;8962;-60
2023/10/30 03:47:25;;;;;;;;;0.00;0.00;;;;;12.81;76.42;98383.84;5078954;28;9673;-59
2023/10/30 03:49:53;;;;;;;;;0.00;0.00;;;;;12.82;76.94;98375.66;5079002;28;8823;-58
2023/10/30 03:52:21;;;;;;;;;0.00;0.00;;;;;12.81;76.32;98381.16;5078739;28;8838;-60
2023/10/30 03:54:48;;;;;;;;;0.00;0.00;;;;;12.81;76.76;98375.81;5079235;28;8893;-59
2023/10/30 03:57:16;;;;;;;;;0.00;0.00;;;;;12.81;76.52;98373.16;5078751;28;8816;-57
2023/10/30 03:59:44;;;;;;;;;0.00;0.00;;;;;12.82;76.68;98380.16;5078623;28;9945;-59
2023/10/30 04:02:11;;;;;;;;;0.00;0.00;;;;;12.83;76.77;98389.88;5078461;28;8820;-59
2023/10/30 04:04:39;;;;;;;;;0.00;0.00;;;;;12.81;76.40;98397.19;5078789;28;8843;-59
2023/10/30 04:07:07;;;;;;;;;0.00;0.00;;;;;12.80;76.20;98390.19;5078605;28;8831;-58
2023/10/30 04:09:34;;;;;;;;;0.00;0.00;;;;;12.77;76.82;98388.69;5078406;28;8911;-58
2023/10/30 04:12:02;;;;;;;;;0.00;0.00;;;;;12.75;76.83;98397.91;5077886;28;8951;-57
2023/10/30 04:14:32;;;;;;;;;0.00;0.00;;;;;12.75;76.45;98416.63;5078282;28;8824;-59
2023/10/30 04:17:02;;;;;;;;;1.50;1.00;;;;;12.73;76.92;98411.44;5078305;28;8823;-60
2023/10/30 04:19:29;;;;;;;;;0.00;0.00;;;;;12.73;76.98;98402.56;5078133;28;8804;-59
2023/10/30 04:21:57;;;;;;;;;0.00;0.00;;;;;12.71;76.79;98405.44;5078380;28;8865;-57
2023/10/30 04:24:25;;;;;;;;;0.50;0.00;;;;;12.70;76.86;98405.59;5077860;28;8917;-59
2023/10/30 04:26:52;;;;;;;;;1.00;1.00;;;;;12.71;76.55;98405.44;5078402;28;8875;-58
2023/10/30 04:29:20;;;;;;;;;0.00;0.00;;;;;12.71;76.31;98391.25;5077799;28;8804;-57
2023/10/30 04:31:48;;;;;;;;;0.00;0.00;;;;;12.71;76.63;98401.94;5078098;28;9532;-57
2023/10/30 04:34:15;;;;;;;;;0.00;0.00;;;;;12.69;77.29;98398.59;5077884;28;8812;-58
2023/10/30 04:36:43;;;;;;;;;0.00;0.00;;;;;12.68;76.73;98399.63;5077727;28;8824;-59
2023/10/30 04:39:13;;;;;;;;;0.00;0.00;;;;;12.68;77.06;98410.28;5077809;28;8812;-60
2023/10/30 04:41:40;;;;;;;;;0.00;0.00;;;;;12.68;77.10;98403.09;5077414;28;8962;-60
2023/10/30 04:44:08;;;;;;;;;0.00;0.00;;;;;12.69;76.80;98390.59;5077510;28;8883;-59
2023/10/30 04:46:36;;;;;;;;;0.00;0.00;;;;;12.68;76.77;98396.94;5076720;28;8832;-58
2023/10/30 04:49:03;;;;;;;;;0.00;0.00;;;;;12.68;76.65;98394.28;5077864;28;8942;-60
2023/10/30 04:51:31;;;;;;;;;0.00;0.00;;;;;12.68;76.88;98395.09;5077889;28;8852;-57
2023/10/30 04:54:00;;;;;;;;;0.25;0.25;;;;;12.68;77.02;98380.91;5077588;28;8828;-57
2023/10/30 04:56:27;;;;;;;;;0.00;0.00;;;;;12.67;77.13;98393.44;5077472;28;8820;-58
2023/10/30 04:58:55;;;;;;;;;0.00;0.00;;;;;12.69;76.84;98387.91;5077239;28;8821;-57
2023/10/30 05:01:22;;;;;;;;;1.00;1.00;;;;;12.70;76.51;98378.91;5077071;28;8846;-59
2023/10/30 05:03:50;;;;;;;;;0.50;0.00;;;;;12.70;76.94;98379.72;5077019;28;8812;-58
2023/10/30 05:06:18;;;;;;;;;0.00;0.00;;;;;12.69;77.22;98377.25;5077010;28;8832;-59
2023/10/30 05:08:45;;;;;;;;;0.00;0.00;;;;;12.69;77.10;98385.25;5077343;28;8859;-60
2023/10/30 05:11:13;;;;;;;;;0.00;0.00;;;;;12.68;77.13;98386.25;5077677;28;9566;-57
2023/10/30 05:13:40;;;;;;;;;0.50;0.50;;;;;12.68;77.18;98394.28;5077267;28;8905;-57
2023/10/30 05:16:08;;;;;;;;;0.00;0.00;;;;;12.66;76.87;98386.44;5077423;28;9484;-58
2023/10/30 05:18:36;;;;;;;;;0.00;0.00;;;;;12.65;77.01;98386.59;5077340;28;9533;-59
2023/10/30 05:21:03;;;;;;;;;0.00;0.00;;;;;12.63;77.48;98400.13;5077021;28;8892;-57
2023/10/30 05:23:31;;;;;;;;;0.00;0.00;;;;;12.62;76.71;98392.28;5076900;28;8824;-57
2023/10/30 05:25:58;;;;;;;;;0.00;0.00;;;;;12.63;77.10;98396.63;5076856;28;8839;-57
2023/10/30 05:28:26;;;;;;;;;0.00;0.00;;;;;12.61;76.64;98391.44;5077153;28;8862;-58
2023/10/30 05:30:54;;;;;;;;;0.00;0.00;;;;;12.62;77.50;98393.09;5076574;28;8946;-57
2023/10/30 05:33:21;;;;;;;;;0.00;0.00;;;;;12.62;77.27;98393.09;5076636;28;8834;-60
2023/10/30 05:35:49;;;;;;;;;0.00;0.00;;;;;12.62;77.24;98402.97;5076519;28;8913;-58
2023/10/30 05:38:17;;;;;;;;;0.00;0.00;;;;;12.62;77.07;98409.13;5076584;28;8824;-57
2023/10/30 05:40:45;;;;;;;;;0.00;0.00;;;;;12.62;77.16;98408.31;5076390;28;8844;-57
2023/10/30 05:43:13;;;;;;;;;0.25;0.25;;;;;12.60;77.33;98405.00;5076289;28;8820;-57
2023/10/30 05:45:40;;;;;;;;;1.00;1.00;;;;;12.60;76.93;98416.47;5076948;28;8820;-58
2023/10/30 05:48:08;;;;;;;;;0.00;0.00;;;;;12.59;76.88;98404.13;5076533;28;8836;-60
2023/10/30 05:50:36;;;;;;;;;0.00;0.00;;;;;12.61;76.81;98406.66;5076314;28;8839;-59
2023/10/30 05:53:03;;;;;;;;;0.00;0.00;;;;;12.59;77.01;98405.97;5075487;28;8875;-58
2023/10/30 05:55:31;;;;;;;;;0.00;0.00;;;;;12.57;77.27;98406.16;5075921;28;8816;-59
2023/10/30 05:57:59;;;;;;;;;0.00;0.00;;;;;12.58;77.06;98406.97;5075978;28;8812;-59
2023/10/30 06:00:27;;;;;;;;;1.00;1.00;;;;;12.59;77.41;98403.28;5076136;28;8856;-58
2023/10/30 06:02:55;;;;;;;;;0.00;0.00;;;;;12.58;76.88;98410.50;5076000;28;8816;-59
2023/10/30 06:05:23;;;;;;;;;0.25;0.25;;;;;12.59;77.63;98414.81;5076004;28;8848;-60
2023/10/30 06:07:50;;;;;;;;;0.00;0.00;;;;;12.58;76.82;98409.66;5076034;28;8843;-59
2023/10/30 06:10:20;;;;;;;;;0.00;0.00;;;;;12.58;76.97;98420.31;5075651;28;8836;-58
2023/10/30 06:12:48;;;;;;;;;0.00;0.00;;;;;12.56;77.05;98403.66;5075950;28;9629;-59
2023/10/30 06:15:16;;;;;;;;;0.00;0.00;;;;;12.56;77.23;98403.66;5075722;28;8937;-59
2023/10/30 06:17:43;;;;;;;;;0.00;0.00;;;;;12.55;76.98;98416.16;5075472;28;8836;-58
2023/10/30 06:20:11;;;;;;;;;0.00;0.00;;;;;12.55;77.30;98410.00;5074973;28;8937;-60
2023/10/30 06:22:39;;;;;;;;;0.50;0.00;;;;;12.54;77.17;98411.81;5074825;28;8832;-59
2023/10/30 06:25:07;;;;;;;;;0.00;0.00;;;;;12.54;77.53;98413.69;5074349;28;8824;-60
2023/10/30 06:27:34;;;;;;;;;0.00;0.00;;;;;12.54;76.86;98401.16;5074713;28;8963;-57
2023/10/30 06:30:04;;;;;;;;;0.00;0.00;;;;;12.54;77.21;98411.81;5074194;28;8881;-58
2023/10/30 06:32:31;;;;;;;;;0.00;0.00;;;;;12.55;77.39;98418.81;5073602;28;8951;-57
2023/10/30 06:34:59;;;;;;;;;0.00;0.00;;;;;12.54;77.65;98417.16;5073665;28;8842;-58
2023/10/30 06:37:27;;;;;;;;;0.00;0.00;;;;;12.54;77.39;98411.81;5073832;28;8832;-59
2023/10/30 06:39:55;;;;;;;;;0.25;0.25;;;;;12.54;77.59;98409.16;5074559;28;8950;-58
2023/10/30 06:42:23;;;;;;;;;1.00;0.00;;;;;12.54;77.47;98405.66;5074020;28;8846;-58
2023/10/30 06:44:51;;;;;;;;;1.00;1.00;;;;;12.53;77.58;98396.00;5074052;28;8871;-58
2023/10/30 06:47:19;;;;;;;;;0.50;0.50;;;;;12.52;77.48;98404.97;5074153;28;8912;-60
2023/10/30 06:49:47;;;;;;;;;0.00;0.00;;;;;12.52;77.82;98399.66;5074191;28;8843;-58
2023/10/30 06:52:15;;;;;;;;;0.50;0.50;;;;;12.52;77.29;98399.66;5074672;28;8816;-58
2023/10/30 06:54:43;;;;;;;;;2.00;0.25;;;;;12.49;77.51;98400.00;5074222;28;8824;-58
2023/10/30 06:57:10;;;;;;;;;0.75;0.25;;;;;12.48;77.83;98396.50;5073578;28;8832;-58
2023/10/30 06:59:38;;;;;;;;;0.00;0.00;;;;;12.48;77.33;98403.69;5072952;28;8828;-60
2023/10/30 07:02:06;;;;;;;;;0.25;0.25;;;;;12.47;77.68;98410.03;5073794;28;8824;-60
2023/10/30 07:04:34;;;;;;;;;0.50;0.50;;;;;12.45;77.89;98404.84;5074145;28;8844;-57
2023/10/30 07:07:03;;;;;;;;;0.00;0.00;;;;;12.43;77.86;98414.03;5073839;28;8839;-58
2023/10/30 07:09:30;;;;;;;;;0.00;0.00;;;;;12.43;78.20;98419.38;5075208;28;8828;-58
2023/10/30 07:11:58;;;;;;;;;0.00;0.00;;;;;12.41;77.64;98416.88;5077792;28;8836;-60
2023/10/30 07:14:26;;;;;;;;;0.00;0.00;;;;;12.40;78.14;98417.06;5078296;28;8852;-60
2023/10/30 07:16:54;;;;;;;;;1.50;1.00;;;;;12.39;78.02;98440.22;5078626;28;9489;-58
2023/10/30 07:19:32;;;;;;;;;0.25;0.00;;;;;12.38;78.02;98432.41;5077956;28;8966;-58
2023/10/30 07:22:01;;;;;;;;;0.00;0.00;;;;;12.38;78.47;98432.41;5078119;28;9508;-58
2023/10/30 07:24:29;;;;;;;;;1.00;1.00;;;;;12.38;77.94;98437.75;5077365;28;8832;-58
2023/10/30 07:26:58;;;;;;;;;2.00;2.00;;;;;12.37;78.19;98430.72;5077407;28;8854;-58
2023/10/30 07:29:25;;;;;;;;;1.00;1.00;;;;;12.36;78.19;98435.25;5076841;28;8832;-60
2023/10/30 07:31:55;;;;;;;;;0.00;0.00;;;;;12.37;77.97;98436.91;5076875;28;8835;-59
2023/10/30 07:34:22;;;;;;;;;1.50;0.00;;;;;12.40;78.12;98441.06;5076513;28;8824;-58
2023/10/30 07:36:50;;;;;;;;;1.00;1.00;;;;;12.43;78.50;98449.59;5076364;28;8848;-58
2023/10/30 07:39:18;;;;;;;;;1.00;1.00;;;;;12.46;78.17;98449.22;5076606;28;8840;-58
2023/10/30 07:41:46;;;;;;;;;0.50;0.50;;;;;12.50;78.35;98449.72;5076698;28;8986;-60
2023/10/30 07:44:14;;;;;;;;;0.50;0.50;;;;;12.52;78.14;98447.69;5076982;28;8950;-59
2023/10/30 07:46:41;;;;;;;;;0.25;0.25;;;;;12.52;77.93;98448.56;5077056;28;8827;-58
2023/10/30 07:49:09;;;;;;;;;1.00;1.00;;;;;12.55;77.83;98450.88;5077291;28;8832;-59
2023/10/30 07:51:37;;;;;;;;;1.00;1.00;;;;;12.59;77.92;98456.69;5077521;28;8831;-58
2023/10/30 07:54:05;;;;;;;;;0.75;0.75;;;;;12.63;78.07;98448.22;5077194;28;8924;-60
2023/10/30 07:56:33;;;;;;;;;0.50;0.25;;;;;12.69;77.86;98438.66;5077202;28;8832;-58
2023/10/30 07:59:00;;;;;;;;;2.50;2.50;;;;;12.75;77.63;98446.00;5075646;28;8979;-58
2023/10/30 08:01:28;;;;;;;;;1.00;0.25;;;;;12.81;77.99;98446.13;5075958;28;8831;-57
2023/10/30 08:03:56;;;;;;;;;0.50;0.50;;;;;12.86;77.97;98451.81;5076513;28;8840;-58
2023/10/30 08:06:24;;;;;;;;;4.00;1.50;;;;;12.91;77.20;98449.41;5076630;28;8863;-60
2023/10/30 08:08:54;;;;;;;;;0.25;0.25;;;;;12.99;77.15;98438.72;5076261;28;8827;-59
2023/10/30 08:11:22;;;;;;;;;2.50;1.00;;;;;13.05;76.97;98448.72;5076832;28;8854;-58
2023/10/30 08:13:50;;;;;;;;;1.00;1.00;;;;;13.13;77.52;98447.88;5076260;28;8936;-57
2023/10/30 08:16:18;;;;;;;;;0.50;0.50;;;;;13.20;77.32;98444.31;5076204;28;8836;-57
2023/10/30 08:18:46;;;;;;;;;0.00;0.00;;;;;13.28;76.45;98446.13;5076198;28;8836;-59
2023/10/30 08:21:15;;;;;;;;;0.75;0.75;;;;;13.36;76.63;98438.06;5076118;28;8843;-58
2023/10/30 08:23:43;;;;;;;;;1.00;1.00;;;;;13.46;76.69;98444.00;5076410;28;8824;-60
2023/10/30 08:26:11;;;;;;;;;1.00;1.00;;;;;13.55;76.56;98442.94;5076629;28;8836;-57
2023/10/30 08:28:39;;;;;;;;;0.50;0.50;;;;;13.65;76.35;98438.16;5075795;28;8843;-58
2023/10/30 08:31:09;;;;;;;;;0.00;0.00;;;;;13.76;76.21;98440.44;5075877;28;8931;-58
2023/10/30 08:33:38;;;;;;;;;0.00;0.00;;;;;13.85;75.70;98442.88;5076208;28;8840;-58
2023/10/30 08:36:06;;;;;;;;;1.00;1.00;;;;;13.92;75.18;98445.66;5075996;28;8854;-58
2023/10/30 08:38:34;;;;;;;;;0.00;0.00;;;;;14.00;75.34;98453.63;5076064;28;8966;-60
2023/10/30 08:41:02;;;;;;;;;1.50;1.00;;;;;14.08;75.65;98461.59;5075372;28;8836;-58
2023/10/30 08:43:30;;;;;;;;;0.80;0.80;;;;;14.10;74.88;98441.66;5074963;28;8843;-60
2023/10/30 08:45:58;;;;;;;;;0.40;0.40;;;;;14.15;75.04;98449.16;5075093;28;8840;-58
2023/10/30 08:48:26;;;;;;;;;0.80;0.80;;;;;14.19;75.37;98445.16;5074091;28;8858;-58
2023/10/30 08:50:55;;;;;;;;;0.80;0.80;;;;;14.24;74.87;98451.63;5073318;28;9525;-59
2023/10/30 08:53:23;;;;;;;;;0.20;0.20;;;;;14.29;74.85;98453.75;5075482;28;8843;-57
2023/10/30 08:55:51;;;;;;;;;0.40;0.40;;;;;14.32;74.74;98450.69;5075457;28;8832;-58
2023/10/30 08:58:20;;;;;;;;;2.60;0.00;;;;;14.39;75.00;98447.13;5075712;28;8905;-58
2023/10/30 09:00:48;;;;;;;;;2.20;1.00;;;;;14.45;74.62;98451.75;5075183;28;8836;-58
2023/10/30 09:03:15;;;;;;;;;1.80;1.80;;;;;14.50;74.80;98440.47;5075594;28;8812;-58
2023/10/30 09:05:43;;;;;;;;;0.40;0.40;;;;;14.56;74.55;98442.44;5074445;28;8839;-57
2023/10/30 09:08:12;;;;;;;;;0.00;0.00;;;;;14.61;74.13;98437.34;5075559;28;8824;-58
2023/10/30 09:10:39;;;;;;;;;1.00;1.00;;;;;14.68;74.42;98448.97;5074691;28;8828;-59
2023/10/30 09:13:07;;;;;;;;;1.00;0.00;;;;;14.77;74.67;98443.34;5074587;28;9843;-58
2023/10/30 09:15:35;;;;;;;;;0.00;0.00;;;;;14.82;73.82;98449.00;5074697;28;8939;-58
2023/10/30 09:18:04;;;;;;;;;1.00;1.00;;;;;14.93;73.75;98442.31;5074863;28;9804;-58
2023/10/30 09:20:32;;;;;;;;;0.00;0.00;;;;;14.99;73.90;98444.25;5073872;28;9046;-58
2023/10/30 09:23:00;;;;;;;;;1.00;0.80;;;;;15.07;73.72;98434.28;5073415;28;8954;-58
2023/10/30 09:25:27;;;;;;;;;1.40;1.00;;;;;15.13;73.16;98436.22;5072942;28;8832;-58
2023/10/30 09:27:55;;;;;;;;;0.00;0.00;;;;;15.18;73.38;98438.34;5072122;28;8980;-58
2023/10/30 09:30:29;;;;;;;;;0.00;0.00;;;;;15.23;73.13;98438.59;5072665;28;8954;-58
2023/10/30 09:32:57;;;;;;;;;1.00;1.00;;;;;15.29;72.61;98440.50;5073150;28;8913;-60
2023/10/30 09:35:29;;;;;;;;;0.00;0.00;;;;;15.36;72.46;98425.38;5074117;28;8820;-59
2023/10/30 09:37:57;;;;;;;;;0.20;0.20;;;;;15.46;72.15;98426.72;5074116;28;8989;-58
2023/10/30 09:40:26;;;;;;;;;0.00;0.00;;;;;15.58;72.15;98424.38;5074048;28;8840;-58
2023/10/30 09:42:54;;;;;;;;;0.00;0.00;;;;;15.75;71.89;98431.16;5074612;28;8820;-58
2023/10/30 09:45:23;;;;;;;;;0.00;0.00;;;;;15.88;72.02;98428.59;5074721;28;8853;-58
2023/10/30 09:47:52;;;;;;;;;0.00;0.00;;;;;15.98;71.62;98429.09;5074565;28;8828;-58
2023/10/30 09:50:20;;;;;;;;;0.00;0.00;;;;;16.05;71.28;98416.56;5074904;28;8871;-59
2023/10/30 09:52:49;;;;;;;;;0.00;0.00;;;;;16.11;71.26;98415.78;5074440;28;8828;-58
2023/10/30 09:55:17;;;;;;;;;0.20;0.00;;;;;16.14;70.72;98407.38;5074837;28;8825;-58
2023/10/30 09:57:45;;;;;;;;;0.00;0.00;;;;;16.17;70.56;98408.63;5074365;28;8856;-58
2023/10/30 10:00:13;;;;;;;;;0.00;0.00;;;;;16.25;70.52;98397.72;5074835;28;9516;-58
2023/10/30 10:02:41;;;;;;;;;0.00;0.00;;;;;16.41;70.36;98396.66;5074771;28;8832;-60
2023/10/30 10:05:09;;;;;;;;;0.00;0.00;;;;;16.49;70.09;98393.81;5074685;28;8828;-59
2023/10/30 10:07:37;;;;;;;;;0.00;0.00;;;;;16.49;69.85;98388.44;5073764;28;8836;-58
2023/10/30 10:10:07;;;;;;;;;0.20;0.00;;;;;16.45;70.20;98393.38;5073481;28;8866;-58
2023/10/30 10:12:35;;;;;;;;;0.00;0.00;;;;;16.36;70.13;98394.53;5074309;28;8865;-59
2023/10/30 10:15:06;;;;;;;;;0.00;0.00;;;;;16.34;70.40;98393.06;5074894;28;8840;-59
2023/10/30 10:17:34;;;;;;;;;0.00;0.00;;;;;16.36;70.13;98388.31;5073956;28;8839;-58
2023/10/30 10:20:03;;;;;;;;;0.00;0.00;;;;;16.44;70.19;98380.13;5074363;28;8840;-59
2023/10/30 10:22:31;;;;;;;;;0.00;0.00;;;;;16.46;69.51;98386.13;5074756;28;8845;-60
2023/10/30 10:24:59;;;;;;;;;0.00;0.00;;;;;16.52;69.43;98382.66;5075144;28;8950;-58
2023/10/30 10:27:27;;;;;;;;;0.00;0.00;;;;;16.57;69.91;98394.47;5074884;28;8950;-59
2023/10/30 10:29:55;;;;;;;;;0.00;0.00;;;;;16.58;69.94;98404.22;5074529;28;8846;-58
2023/10/30 10:32:23;;;;;;;;;0.00;0.00;;;;;16.55;69.54;98396.53;5074466;28;8816;-58
2023/10/30 10:34:51;;;;;;;;;0.00;0.00;;;;;16.64;69.68;98384.56;5074640;28;8832;-57
2023/10/30 10:37:19;;;;;;;;;1.00;1.00;;;;;16.85;69.23;98373.72;5074538;28;9489;-57
2023/10/30 10:39:48;;;;;;;;;0.00;0.00;;;;;17.18;68.19;98365.81;5074230;28;8862;-59
2023/10/30 10:42:20;;;;;;;;;0.00;0.00;;;;;17.49;67.35;98375.03;5073892;28;8836;-57
2023/10/30 10:44:48;;;;;;;;;0.00;0.00;;;;;17.66;67.29;98367.38;5076542;28;8867;-57
2023/10/30 10:47:17;;;;;;;;;0.00;0.00;;;;;17.68;66.85;98366.16;5078710;28;9006;-57
2023/10/30 10:49:47;;;;;;;;;0.00;0.00;;;;;17.83;67.13;98358.72;5078637;28;8843;-57
2023/10/30 10:52:16;;;;;;;;;0.00;0.00;;;;;18.18;66.36;98351.25;5078509;28;8838;-56
2023/10/30 10:54:43;;;;;;;;;0.00;0.00;;;;;18.63;64.90;98356.59;5078510;28;8827;-57
2023/10/30 10:57:11;;;;;;;;;0.00;0.00;;;;;18.83;64.52;98351.13;5077968;28;8854;-56
2023/10/30 10:59:40;;;;;;;;;0.00;0.00;;;;;19.06;64.08;98348.75;5077573;28;8843;-57
2023/10/30 11:02:08;;;;;;;;;0.00;0.00;;;;;19.24;63.70;98336.25;5078035;28;8840;-56
2023/10/30 11:04:36;;;;;;;;;0.00;0.00;;;;;19.34;63.61;98338.47;5078162;28;8900;-57
2023/10/30 11:07:05;;;;;;;;;0.00;0.00;;;;;19.33;64.19;98343.03;5077355;28;8858;-56
2023/10/30 11:09:32;;;;;;;;;0.00;0.00;;;;;19.49;63.88;98342.53;5077179;28;8839;-57
2023/10/30 11:12:00;;;;;;;;;0.00;0.00;;;;;19.70;63.94;98347.59;5077035;28;8861;-58
2023/10/30 11:14:28;;;;;;;;;0.00;0.00;;;;;19.58;63.79;98333.13;5084179;28;8846;-57
2023/10/30 11:16:56;;;;;;;;;0.00;0.00;;;;;19.38;63.85;98340.53;5094898;28;8849;-58
2023/10/30 11:19:24;;;;;;;;;0.00;0.00;;;;;19.26;64.00;98346.84;5096958;28;8861;-57
2023/10/30 11:21:52;;;;;;;;;0.00;0.00;;;;;19.06;64.65;98338.78;5097400;28;8837;-56
2023/10/30 11:24:20;;;;;;;;;1.00;0.00;;;;;18.87;65.13;98334.31;5096640;28;8818;-56
2023/10/30 11:26:48;;;;;;;;;0.00;0.00;;;;;18.79;64.94;98326.47;5096889;28;8845;-56
2023/10/30 11:29:16;;;;;;;;;0.00;0.00;;;;;18.64;65.24;98320.50;5097623;28;8868;-58
2023/10/30 11:31:44;;;;;;;;;0.00;0.00;;;;;18.57;65.67;98318.84;5097440;28;8915;-57
2023/10/30 11:34:12;;;;;;;;;0.00;0.00;;;;;18.65;65.51;98308.66;5096454;28;8830;-58
2023/10/30 11:36:40;;;;;;;;;0.00;0.00;;;;;18.74;64.79;98307.38;5096926;28;8829;-57
2023/10/30 11:39:10;;;;;;;;;0.00;0.00;;;;;18.97;64.72;98301.47;5097812;28;8854;-57
2023/10/30 11:41:38;;;;;;;;;0.00;0.00;;;;;19.28;64.10;98290.75;5097794;28;8834;-57
2023/10/30 11:44:06;;;;;;;;;0.00;0.00;;;;;19.45;63.80;98281.91;5097408;28;8930;-57